sensor_id;sensor_type;location;lat;lon;timestamp;pressure;altitude;pressure_sealevel;temperature;humidity
63281;BME280;49406;51.044;3.766;2022-11-20T00:01:59;101405.05;;;3.02;100.00
63281;BME280;49406;51.044;3.766;2022-11-20T00:04:33;101404.36;;;3.05;100.00
63281;BME280;49406;51.044;3.766;2022-11-20T00:07:08;101402.77;;;3.01;100.00
63281;BME280;49406;51.044;3.766;2022-11-20T00:09:42;101403.56;;;3.00;100.00
63281;BME280;49406;51.044;3.766;2022-11-20T00:12:17;101402.56;;;3.07;100.00
63281;BME280;49406;51.044;3.766;2022-11-20T00:14:51;101401.90;;;3.08;100.00
63281;BME280;49406;51.044;3.766;2022-11-20T00:17:26;101403.20;;;3.06;100.00
63281;BME280;49406;51.044;3.766;2022-11-20T00:20:00;101409.00;;;2.94;100.00
63281;BME280;49406;51.044;3.766;2022-11-20T00:22:35;101404.19;;;2.98;100.00
63281;BME280;49406;51.044;3.766;2022-11-20T00:25:10;101401.20;;;3.01;100.00
63281;BME280;49406;51.044;3.766;2022-11-20T00:27:45;101402.94;;;3.04;100.00
63281;BME280;49406;51.044;3.766;2022-11-20T00:30:20;101403.39;;;2.96;100.00
63281;BME280;49406;51.044;3.766;2022-11-20T00:32:55;101405.64;;;3.00;100.00
63281;BME280;49406;51.044;3.766;2022-11-20T00:35:30;101404.55;;;3.06;100.00
63281;BME280;49406;51.044;3.766;2022-11-20T00:38:05;101401.64;;;3.06;100.00
63281;BME280;49406;51.044;3.766;2022-11-20T00:40:39;101396.33;;;3.07;100.00
63281;BME280;49406;51.044;3.766;2022-11-20T00:43:14;101395.28;;;2.96;100.00
63281;BME280;49406;51.044;3.766;2022-11-20T00:45:48;101400.83;;;3.04;100.00
63281;BME280;49406;51.044;3.766;2022-11-20T00:48:23;101400.40;;;3.09;100.00
63281;BME280;49406;51.044;3.766;2022-11-20T00:50:57;101401.10;;;3.13;100.00
63281;BME280;49406;51.044;3.766;2022-11-20T00:53:32;101403.17;;;3.09;100.00
63281;BME280;49406;51.044;3.766;2022-11-20T00:56:09;101403.64;;;3.01;100.00
63281;BME280;49406;51.044;3.766;2022-11-20T00:58:46;101405.66;;;3.11;100.00
63281;BME280;49406;51.044;3.766;2022-11-20T01:01:22;101400.55;;;3.16;100.00
63281;BME280;49406;51.044;3.766;2022-11-20T01:03:59;101395.21;;;3.13;100.00
63281;BME280;49406;51.044;3.766;2022-11-20T01:06:36;101397.84;;;3.10;100.00
63281;BME280;49406;51.044;3.766;2022-11-20T01:09:12;101400.85;;;3.08;100.00
63281;BME280;49406;51.044;3.766;2022-11-20T01:11:47;101400.79;;;3.03;100.00
63281;BME280;49406;51.044;3.766;2022-11-20T01:14:21;101395.32;;;3.12;100.00
63281;BME280;49406;51.044;3.766;2022-11-20T01:16:56;101395.59;;;3.17;100.00
63281;BME280;49406;51.044;3.766;2022-11-20T01:19:30;101400.55;;;3.19;100.00
63281;BME280;49406;51.044;3.766;2022-11-20T01:22:05;101399.14;;;3.16;100.00
63281;BME280;49406;51.044;3.766;2022-11-20T01:24:38;101397.73;;;3.22;100.00
63281;BME280;49406;51.044;3.766;2022-11-20T01:27:11;101399.33;;;3.27;100.00
63281;BME280;49406;51.044;3.766;2022-11-20T01:29:45;101393.06;;;3.30;100.00
63281;BME280;49406;51.044;3.766;2022-11-20T01:32:20;101387.48;;;3.24;100.00
63281;BME280;49406;51.044;3.766;2022-11-20T01:34:54;101388.15;;;3.17;100.00
63281;BME280;49406;51.044;3.766;2022-11-20T01:37:29;101396.61;;;3.24;100.00
63281;BME280;49406;51.044;3.766;2022-11-20T01:40:05;101401.20;;;3.26;100.00
63281;BME280;49406;51.044;3.766;2022-11-20T01:42:43;101401.39;;;3.23;100.00
63281;BME280;49406;51.044;3.766;2022-11-20T01:46:15;101398.85;;;3.17;100.00
63281;BME280;49406;51.044;3.766;2022-11-20T01:48:53;101401.86;;;3.25;100.00
63281;BME280;49406;51.044;3.766;2022-11-20T01:51:33;101400.39;;;3.24;100.00
63281;BME280;49406;51.044;3.766;2022-11-20T01:54:11;101406.84;;;3.28;100.00
63281;BME280;49406;51.044;3.766;2022-11-20T01:56:50;101403.04;;;3.25;100.00
63281;BME280;49406;51.044;3.766;2022-11-20T01:59:27;101404.02;;;3.31;100.00
63281;BME280;49406;51.044;3.766;2022-11-20T02:02:03;101403.04;;;3.36;100.00
63281;BME280;49406;51.044;3.766;2022-11-20T02:04:37;101398.91;;;3.37;100.00
63281;BME280;49406;51.044;3.766;2022-11-20T02:07:13;101396.36;;;3.26;100.00
63281;BME280;49406;51.044;3.766;2022-11-20T02:09:48;101394.63;;;3.30;100.00
63281;BME280;49406;51.044;3.766;2022-11-20T02:12:22;101394.27;;;3.34;100.00
63281;BME280;49406;51.044;3.766;2022-11-20T02:15:13;101389.88;;;3.35;100.00
63281;BME280;49406;51.044;3.766;2022-11-20T02:17:47;101385.60;;;3.29;100.00
63281;BME280;49406;51.044;3.766;2022-11-20T02:20:22;101377.16;;;3.34;100.00
63281;BME280;49406;51.044;3.766;2022-11-20T02:22:59;101378.14;;;3.32;100.00
63281;BME280;49406;51.044;3.766;2022-11-20T02:25:38;101377.91;;;3.35;100.00
63281;BME280;49406;51.044;3.766;2022-11-20T02:28:14;101370.86;;;3.28;100.00
63281;BME280;49406;51.044;3.766;2022-11-20T02:30:49;101370.73;;;3.25;100.00
63281;BME280;49406;51.044;3.766;2022-11-20T02:33:23;101365.61;;;3.30;100.00
63281;BME280;49406;51.044;3.766;2022-11-20T02:35:58;101364.55;;;3.29;100.00
63281;BME280;49406;51.044;3.766;2022-11-20T02:38:33;101369.45;;;3.31;100.00
63281;BME280;49406;51.044;3.766;2022-11-20T02:41:07;101367.08;;;3.24;100.00
63281;BME280;49406;51.044;3.766;2022-11-20T02:43:42;101373.95;;;3.20;100.00
63281;BME280;49406;51.044;3.766;2022-11-20T02:46:16;101368.64;;;3.32;100.00
63281;BME280;49406;51.044;3.766;2022-11-20T02:48:49;101369.19;;;3.40;100.00
63281;BME280;49406;51.044;3.766;2022-11-20T02:51:24;101370.55;;;3.40;100.00
63281;BME280;49406;51.044;3.766;2022-11-20T02:53:59;101365.13;;;3.39;100.00
63281;BME280;49406;51.044;3.766;2022-11-20T02:56:33;101363.05;;;3.50;100.00
63281;BME280;49406;51.044;3.766;2022-11-20T02:59:08;101361.23;;;3.55;100.00
63281;BME280;49406;51.044;3.766;2022-11-20T03:01:43;101365.40;;;3.52;100.00
63281;BME280;49406;51.044;3.766;2022-11-20T03:04:18;101363.14;;;3.45;100.00
63281;BME280;49406;51.044;3.766;2022-11-20T03:06:52;101357.77;;;3.52;100.00
63281;BME280;49406;51.044;3.766;2022-11-20T03:09:28;101357.15;;;3.57;100.00
63281;BME280;49406;51.044;3.766;2022-11-20T03:12:02;101351.91;;;3.56;100.00
63281;BME280;49406;51.044;3.766;2022-11-20T03:14:37;101346.73;;;3.49;100.00
63281;BME280;49406;51.044;3.766;2022-11-20T03:17:11;101348.09;;;3.56;100.00
63281;BME280;49406;51.044;3.766;2022-11-20T03:19:46;101347.73;;;3.59;100.00
63281;BME280;49406;51.044;3.766;2022-11-20T03:22:20;101344.45;;;3.59;100.00
63281;BME280;49406;51.044;3.766;2022-11-20T03:24:55;101341.92;;;3.53;100.00
63281;BME280;49406;51.044;3.766;2022-11-20T03:27:33;101332.13;;;3.62;100.00
63281;BME280;49406;51.044;3.766;2022-11-20T03:30:10;101332.92;;;3.72;100.00
63281;BME280;49406;51.044;3.766;2022-11-20T03:32:45;101328.11;;;3.73;100.00
63281;BME280;49406;51.044;3.766;2022-11-20T03:35:20;101322.14;;;3.67;100.00
63281;BME280;49406;51.044;3.766;2022-11-20T03:37:54;101316.33;;;3.76;100.00
63281;BME280;49406;51.044;3.766;2022-11-20T03:40:29;101309.30;;;3.82;100.00
63281;BME280;49406;51.044;3.766;2022-11-20T03:43:03;101304.17;;;3.79;100.00
63281;BME280;49406;51.044;3.766;2022-11-20T03:45:38;101302.98;;;3.72;100.00
63281;BME280;49406;51.044;3.766;2022-11-20T03:48:13;101295.16;;;3.79;100.00
63281;BME280;49406;51.044;3.766;2022-11-20T03:50:47;101289.91;;;3.81;100.00
63281;BME280;49406;51.044;3.766;2022-11-20T03:53:22;101284.77;;;3.79;100.00
63281;BME280;49406;51.044;3.766;2022-11-20T03:55:56;101285.58;;;3.70;100.00
63281;BME280;49406;51.044;3.766;2022-11-20T03:58:31;101277.91;;;3.76;100.00
63281;BME280;49406;51.044;3.766;2022-11-20T04:01:08;101279.66;;;3.84;100.00
63281;BME280;49406;51.044;3.766;2022-11-20T04:03:44;101272.71;;;3.80;100.00
63281;BME280;49406;51.044;3.766;2022-11-20T04:06:20;101262.68;;;3.71;100.00
63281;BME280;49406;51.044;3.766;2022-11-20T04:08:57;101259.33;;;3.78;100.00
63281;BME280;49406;51.044;3.766;2022-11-20T04:11:33;101259.88;;;3.83;100.00
63281;BME280;49406;51.044;3.766;2022-11-20T04:14:14;101253.61;;;3.82;100.00
63281;BME280;49406;51.044;3.766;2022-11-20T04:16:49;101264.04;;;3.75;100.00
63281;BME280;49406;51.044;3.766;2022-11-20T04:19:24;101263.08;;;3.81;100.00
63281;BME280;49406;51.044;3.766;2022-11-20T04:21:59;101261.90;;;3.85;100.00
63281;BME280;49406;51.044;3.766;2022-11-20T04:24:33;101261.31;;;3.80;100.00
63281;BME280;49406;51.044;3.766;2022-11-20T04:27:08;101265.41;;;3.79;100.00
63281;BME280;49406;51.044;3.766;2022-11-20T04:29:42;101266.55;;;3.89;100.00
63281;BME280;49406;51.044;3.766;2022-11-20T04:32:17;101265.31;;;3.93;100.00
63281;BME280;49406;51.044;3.766;2022-11-20T04:34:51;101258.27;;;3.90;100.00
63281;BME280;49406;51.044;3.766;2022-11-20T04:37:26;101253.46;;;3.83;100.00
63281;BME280;49406;51.044;3.766;2022-11-20T04:40:01;101252.64;;;3.92;100.00
63281;BME280;49406;51.044;3.766;2022-11-20T04:42:35;101248.89;;;3.98;100.00
63281;BME280;49406;51.044;3.766;2022-11-20T04:45:10;101250.70;;;3.95;100.00
63281;BME280;49406;51.044;3.766;2022-11-20T04:47:45;101241.55;;;3.87;100.00
63281;BME280;49406;51.044;3.766;2022-11-20T04:50:20;101234.30;;;3.91;100.00
63281;BME280;49406;51.044;3.766;2022-11-20T04:52:54;101237.95;;;3.92;100.00
63281;BME280;49406;51.044;3.766;2022-11-20T04:55:29;101233.79;;;3.79;100.00
63281;BME280;49406;51.044;3.766;2022-11-20T04:58:03;101236.13;;;3.77;100.00
63281;BME280;49406;51.044;3.766;2022-11-20T05:00:38;101234.96;;;3.79;100.00
63281;BME280;49406;51.044;3.766;2022-11-20T05:03:13;101238.30;;;3.76;100.00
63281;BME280;49406;51.044;3.766;2022-11-20T05:05:47;101231.91;;;3.72;100.00
63281;BME280;49406;51.044;3.766;2022-11-20T05:08:22;101229.46;;;3.67;100.00
63281;BME280;49406;51.044;3.766;2022-11-20T05:11:01;101238.05;;;3.54;100.00
63281;BME280;49406;51.044;3.766;2022-11-20T05:13:35;101254.21;;;3.56;100.00
63281;BME280;49406;51.044;3.766;2022-11-20T05:16:12;101249.30;;;3.62;100.00
63281;BME280;49406;51.044;3.766;2022-11-20T05:18:47;101241.52;;;3.67;100.00
63281;BME280;49406;51.044;3.766;2022-11-20T05:21:22;101237.15;;;3.69;100.00
63281;BME280;49406;51.044;3.766;2022-11-20T05:23:57;101229.14;;;3.71;100.00
63281;BME280;49406;51.044;3.766;2022-11-20T05:26:31;101220.18;;;3.64;100.00
63281;BME280;49406;51.044;3.766;2022-11-20T05:29:06;101213.11;;;3.73;100.00
63281;BME280;49406;51.044;3.766;2022-11-20T05:31:41;101210.59;;;3.79;100.00
63281;BME280;49406;51.044;3.766;2022-11-20T05:34:16;101204.54;;;3.83;100.00
63281;BME280;49406;51.044;3.766;2022-11-20T05:36:51;101205.85;;;3.81;100.00
63281;BME280;49406;51.044;3.766;2022-11-20T05:39:26;101206.83;;;3.80;100.00
63281;BME280;49406;51.044;3.766;2022-11-20T05:42:00;101209.05;;;3.92;100.00
63281;BME280;49406;51.044;3.766;2022-11-20T05:44:52;101208.80;;;3.99;100.00
63281;BME280;49406;51.044;3.766;2022-11-20T05:47:27;101213.62;;;4.02;100.00
63281;BME280;49406;51.044;3.766;2022-11-20T05:50:03;101205.79;;;4.01;100.00
63281;BME280;49406;51.044;3.766;2022-11-20T05:52:37;101213.01;;;3.96;100.00
63281;BME280;49406;51.044;3.766;2022-11-20T05:55:12;101224.05;;;4.08;100.00
63281;BME280;49406;51.044;3.766;2022-11-20T05:57:47;101223.08;;;4.14;100.00
63281;BME280;49406;51.044;3.766;2022-11-20T06:00:21;101224.59;;;4.17;100.00
63281;BME280;49406;51.044;3.766;2022-11-20T06:02:56;101227.59;;;4.14;100.00
63281;BME280;49406;51.044;3.766;2022-11-20T06:05:30;101223.72;;;4.12;100.00
63281;BME280;49406;51.044;3.766;2022-11-20T06:08:05;101225.54;;;4.23;100.00
63281;BME280;49406;51.044;3.766;2022-11-20T06:10:40;101221.56;;;4.28;100.00
63281;BME280;49406;51.044;3.766;2022-11-20T06:13:14;101220.48;;;4.23;100.00
63281;BME280;49406;51.044;3.766;2022-11-20T06:15:51;101220.86;;;4.27;100.00
63281;BME280;49406;51.044;3.766;2022-11-20T06:18:27;101218.95;;;4.36;100.00
63281;BME280;49406;51.044;3.766;2022-11-20T06:21:05;101218.92;;;4.40;100.00
63281;BME280;49406;51.044;3.766;2022-11-20T06:23:40;101212.77;;;4.33;100.00
63281;BME280;49406;51.044;3.766;2022-11-20T06:26:17;101216.15;;;4.31;100.00
63281;BME280;49406;51.044;3.766;2022-11-20T06:28:53;101213.72;;;4.39;100.00
63281;BME280;49406;51.044;3.766;2022-11-20T06:31:29;101210.45;;;4.44;100.00
63281;BME280;49406;51.044;3.766;2022-11-20T06:34:06;101201.73;;;4.43;100.00
63281;BME280;49406;51.044;3.766;2022-11-20T06:36:40;101199.28;;;4.34;100.00
63281;BME280;49406;51.044;3.766;2022-11-20T06:39:15;101197.27;;;4.39;100.00
63281;BME280;49406;51.044;3.766;2022-11-20T06:41:50;101197.07;;;4.43;100.00
63281;BME280;49406;51.044;3.766;2022-11-20T06:44:24;101192.41;;;4.44;100.00
63281;BME280;49406;51.044;3.766;2022-11-20T06:46:59;101198.11;;;4.48;100.00
63281;BME280;49406;51.044;3.766;2022-11-20T06:49:34;101195.01;;;4.43;100.00
63281;BME280;49406;51.044;3.766;2022-11-20T06:52:10;101197.90;;;4.38;100.00
63281;BME280;49406;51.044;3.766;2022-11-20T06:54:44;101196.64;;;4.50;100.00
63281;BME280;49406;51.044;3.766;2022-11-20T06:57:19;101197.79;;;4.57;100.00
63281;BME280;49406;51.044;3.766;2022-11-20T06:59:53;101193.30;;;4.58;100.00
63281;BME280;49406;51.044;3.766;2022-11-20T07:02:28;101187.00;;;4.47;100.00
63281;BME280;49406;51.044;3.766;2022-11-20T07:05:01;101185.80;;;4.52;100.00
63281;BME280;49406;51.044;3.766;2022-11-20T07:07:36;101179.29;;;4.58;100.00
63281;BME280;49406;51.044;3.766;2022-11-20T07:10:11;101178.84;;;4.60;100.00
63281;BME280;49406;51.044;3.766;2022-11-20T07:12:52;101180.60;;;4.51;100.00
63281;BME280;49406;51.044;3.766;2022-11-20T07:15:25;101179.30;;;4.58;100.00
63281;BME280;49406;51.044;3.766;2022-11-20T07:18:01;101179.02;;;4.65;100.00
63281;BME280;49406;51.044;3.766;2022-11-20T07:20:35;101174.96;;;4.68;100.00
63281;BME280;49406;51.044;3.766;2022-11-20T07:23:10;101171.34;;;4.68;100.00
63281;BME280;49406;51.044;3.766;2022-11-20T07:25:45;101169.83;;;4.65;100.00
63281;BME280;49406;51.044;3.766;2022-11-20T07:28:19;101171.13;;;4.76;100.00
63281;BME280;49406;51.044;3.766;2022-11-20T07:30:54;101169.02;;;4.80;100.00
63281;BME280;49406;51.044;3.766;2022-11-20T07:33:29;101165.18;;;4.84;100.00
63281;BME280;49406;51.044;3.766;2022-11-20T07:36:04;101159.05;;;4.77;100.00
63281;BME280;49406;51.044;3.766;2022-11-20T07:38:39;101156.17;;;4.79;100.00
63281;BME280;49406;51.044;3.766;2022-11-20T07:41:14;101165.30;;;4.87;100.00
63281;BME280;49406;51.044;3.766;2022-11-20T07:43:49;101157.65;;;4.91;100.00
63281;BME280;49406;51.044;3.766;2022-11-20T07:46:23;101159.59;;;4.92;100.00
63281;BME280;49406;51.044;3.766;2022-11-20T07:48:58;101154.89;;;4.82;100.00
63281;BME280;49406;51.044;3.766;2022-11-20T07:51:32;101152.50;;;4.92;100.00
63281;BME280;49406;51.044;3.766;2022-11-20T07:54:06;101144.57;;;4.94;100.00
63281;BME280;49406;51.044;3.766;2022-11-20T07:56:40;101148.89;;;4.98;100.00
63281;BME280;49406;51.044;3.766;2022-11-20T07:59:15;101148.63;;;5.01;100.00
63281;BME280;49406;51.044;3.766;2022-11-20T08:01:49;101143.13;;;4.97;100.00
63281;BME280;49406;51.044;3.766;2022-11-20T08:04:24;101137.87;;;5.01;100.00
63281;BME280;49406;51.044;3.766;2022-11-20T08:06:59;101136.77;;;5.08;100.00
63281;BME280;49406;51.044;3.766;2022-11-20T08:09:33;101140.23;;;5.13;100.00
63281;BME280;49406;51.044;3.766;2022-11-20T08:12:07;101143.73;;;5.14;100.00
63281;BME280;49406;51.044;3.766;2022-11-20T08:14:58;101143.67;;;5.07;100.00
63281;BME280;49406;51.044;3.766;2022-11-20T08:17:33;101147.58;;;5.20;100.00
63281;BME280;49406;51.044;3.766;2022-11-20T08:20:09;101150.43;;;5.27;100.00
63281;BME280;49406;51.044;3.766;2022-11-20T08:22:42;101139.42;;;5.30;100.00
63281;BME280;49406;51.044;3.766;2022-11-20T08:25:16;101142.14;;;5.28;100.00
63281;BME280;49406;51.044;3.766;2022-11-20T08:27:51;101138.23;;;5.25;100.00
63281;BME280;49406;51.044;3.766;2022-11-20T08:30:26;101134.02;;;5.34;100.00
63281;BME280;49406;51.044;3.766;2022-11-20T08:33:04;101122.72;;;5.38;100.00
63281;BME280;49406;51.044;3.766;2022-11-20T08:35:41;101123.17;;;5.36;100.00
63281;BME280;49406;51.044;3.766;2022-11-20T08:38:16;101124.59;;;5.27;100.00
63281;BME280;49406;51.044;3.766;2022-11-20T08:40:50;101126.62;;;5.36;100.00
63281;BME280;49406;51.044;3.766;2022-11-20T08:43:39;101121.05;;;5.40;100.00
63281;BME280;49406;51.044;3.766;2022-11-20T08:46:12;101119.37;;;5.41;100.00
63281;BME280;49406;51.044;3.766;2022-11-20T08:48:46;101118.37;;;5.43;100.00
63281;BME280;49406;51.044;3.766;2022-11-20T08:51:21;101119.11;;;5.39;100.00
63281;BME280;49406;51.044;3.766;2022-11-20T08:53:54;101118.29;;;5.35;100.00
63281;BME280;49406;51.044;3.766;2022-11-20T08:56:29;101118.35;;;5.48;100.00
63281;BME280;49406;51.044;3.766;2022-11-20T08:59:04;101116.14;;;5.54;100.00
63281;BME280;49406;51.044;3.766;2022-11-20T09:01:38;101108.59;;;5.56;100.00
63281;BME280;49406;51.044;3.766;2022-11-20T09:04:13;101114.85;;;5.57;100.00
63281;BME280;49406;51.044;3.766;2022-11-20T09:06:48;101106.31;;;5.51;100.00
63281;BME280;49406;51.044;3.766;2022-11-20T09:09:24;101096.55;;;5.60;100.00
63281;BME280;49406;51.044;3.766;2022-11-20T09:11:58;101091.35;;;5.65;100.00
63281;BME280;49406;51.044;3.766;2022-11-20T09:14:33;101085.50;;;5.72;100.00
63281;BME280;49406;51.044;3.766;2022-11-20T09:17:07;101082.42;;;5.73;100.00
63281;BME280;49406;51.044;3.766;2022-11-20T09:19:45;101081.69;;;5.67;100.00
63281;BME280;49406;51.044;3.766;2022-11-20T09:22:20;101077.76;;;5.80;100.00
63281;BME280;49406;51.044;3.766;2022-11-20T09:24:53;101073.12;;;5.87;100.00
63281;BME280;49406;51.044;3.766;2022-11-20T09:27:27;101063.59;;;5.91;100.00
63281;BME280;49406;51.044;3.766;2022-11-20T09:30:02;101060.34;;;5.93;100.00
63281;BME280;49406;51.044;3.766;2022-11-20T09:32:37;101057.60;;;5.95;100.00
63281;BME280;49406;51.044;3.766;2022-11-20T09:35:12;101059.71;;;6.07;100.00
63281;BME280;49406;51.044;3.766;2022-11-20T09:37:47;101057.77;;;6.18;100.00
63281;BME280;49406;51.044;3.766;2022-11-20T09:40:23;101049.83;;;6.25;100.00
63281;BME280;49406;51.044;3.766;2022-11-20T09:43:01;101044.13;;;6.20;100.00
63281;BME280;49406;51.044;3.766;2022-11-20T09:45:53;101034.08;;;6.33;100.00
63281;BME280;49406;51.044;3.766;2022-11-20T09:48:44;101036.71;;;6.47;100.00
63281;BME280;49406;51.044;3.766;2022-11-20T09:51:35;101035.27;;;6.51;100.00
63281;BME280;49406;51.044;3.766;2022-11-20T09:54:17;101026.35;;;6.54;100.00
63281;BME280;49406;51.044;3.766;2022-11-20T09:56:58;101013.83;;;6.67;100.00
63281;BME280;49406;51.044;3.766;2022-11-20T09:59:38;101004.91;;;6.78;100.00
63281;BME280;49406;51.044;3.766;2022-11-20T10:02:24;100996.94;;;6.79;100.00
63281;BME280;49406;51.044;3.766;2022-11-20T10:05:03;100994.48;;;6.91;100.00
63281;BME280;49406;51.044;3.766;2022-11-20T10:07:43;100990.88;;;7.07;100.00
63281;BME280;49406;51.044;3.766;2022-11-20T10:10:18;100998.98;;;7.12;100.00
63281;BME280;49406;51.044;3.766;2022-11-20T10:13:05;101001.11;;;7.20;100.00
63281;BME280;49406;51.044;3.766;2022-11-20T10:15:49;100994.05;;;7.45;100.00
63281;BME280;49406;51.044;3.766;2022-11-20T10:18:38;100986.98;;;7.56;100.00
63281;BME280;49406;51.044;3.766;2022-11-20T10:21:26;100985.91;;;7.54;100.00
63281;BME280;49406;51.044;3.766;2022-11-20T10:27:02;100970.98;;;7.72;100.00
63281;BME280;49406;51.044;3.766;2022-11-20T10:29:45;100965.11;;;7.66;100.00
63281;BME280;49406;51.044;3.766;2022-11-20T10:32:27;100964.98;;;7.76;100.00
63281;BME280;49406;51.044;3.766;2022-11-20T10:35:06;100963.43;;;7.85;100.00
63281;BME280;49406;51.044;3.766;2022-11-20T10:37:46;100966.01;;;7.83;100.00
63281;BME280;49406;51.044;3.766;2022-11-20T10:40:29;100963.39;;;7.91;100.00
63281;BME280;49406;51.044;3.766;2022-11-20T10:43:10;100955.28;;;8.03;100.00
63281;BME280;49406;51.044;3.766;2022-11-20T10:45:52;100946.39;;;8.10;100.00
63281;BME280;49406;51.044;3.766;2022-11-20T10:48:30;100937.83;;;8.09;100.00
63281;BME280;49406;51.044;3.766;2022-11-20T10:51:21;100925.23;;;8.24;100.00
63281;BME280;49406;51.044;3.766;2022-11-20T10:54:06;100928.19;;;8.41;100.00
63281;BME280;49406;51.044;3.766;2022-11-20T10:56:47;100924.02;;;8.52;100.00
63281;BME280;49406;51.044;3.766;2022-11-20T10:59:44;100919.23;;;8.56;100.00
63281;BME280;49406;51.044;3.766;2022-11-20T11:02:23;100909.30;;;8.56;100.00
63281;BME280;49406;51.044;3.766;2022-11-20T11:04:56;100902.84;;;8.66;100.00
63281;BME280;49406;51.044;3.766;2022-11-20T11:07:35;100894.38;;;8.59;100.00
63281;BME280;49406;51.044;3.766;2022-11-20T11:10:16;100882.30;;;8.68;100.00
63281;BME280;49406;51.044;3.766;2022-11-20T11:12:51;100882.47;;;8.67;100.00
63281;BME280;49406;51.044;3.766;2022-11-20T11:15:36;100885.83;;;8.70;100.00
63281;BME280;49406;51.044;3.766;2022-11-20T11:18:10;100887.88;;;8.77;100.00
63281;BME280;49406;51.044;3.766;2022-11-20T11:20:51;100883.96;;;8.73;100.00
63281;BME280;49406;51.044;3.766;2022-11-20T11:23:34;100877.73;;;8.65;100.00
63281;BME280;49406;51.044;3.766;2022-11-20T11:26:20;100868.52;;;8.68;100.00
63281;BME280;49406;51.044;3.766;2022-11-20T11:28:57;100869.59;;;8.69;100.00
63281;BME280;49406;51.044;3.766;2022-11-20T11:31:33;100864.15;;;8.66;100.00
63281;BME280;49406;51.044;3.766;2022-11-20T11:34:11;100857.66;;;8.63;100.00
63281;BME280;49406;51.044;3.766;2022-11-20T11:36:54;100852.91;;;8.50;100.00
63281;BME280;49406;51.044;3.766;2022-11-20T11:39:31;100850.86;;;8.53;100.00
63281;BME280;49406;51.044;3.766;2022-11-20T11:42:08;100842.50;;;8.53;100.00
63281;BME280;49406;51.044;3.766;2022-11-20T11:44:48;100838.14;;;8.53;100.00
63281;BME280;49406;51.044;3.766;2022-11-20T11:47:47;100833.33;;;8.36;100.00
63281;BME280;49406;51.044;3.766;2022-11-20T11:50:28;100831.84;;;8.32;100.00
63281;BME280;49406;51.044;3.766;2022-11-20T11:53:12;100822.66;;;8.24;100.00
63281;BME280;49406;51.044;3.766;2022-11-20T11:55:49;100815.41;;;8.20;100.00
63281;BME280;49406;51.044;3.766;2022-11-20T11:58:43;100811.81;;;8.03;100.00
63281;BME280;49406;51.044;3.766;2022-11-20T12:01:28;100806.45;;;7.94;100.00
63281;BME280;49406;51.044;3.766;2022-11-20T12:04:13;100802.16;;;7.89;100.00
63281;BME280;49406;51.044;3.766;2022-11-20T12:06:57;100791.98;;;7.84;100.00
63281;BME280;49406;51.044;3.766;2022-11-20T12:09:37;100781.82;;;7.80;100.00
63281;BME280;49406;51.044;3.766;2022-11-20T12:12:19;100777.06;;;7.76;100.00
63281;BME280;49406;51.044;3.766;2022-11-20T12:14:56;100772.45;;;7.63;100.00
63281;BME280;49406;51.044;3.766;2022-11-20T12:17:31;100761.18;;;7.66;100.00
63281;BME280;49406;51.044;3.766;2022-11-20T12:20:05;100752.35;;;7.69;100.00
63281;BME280;49406;51.044;3.766;2022-11-20T12:22:46;100747.12;;;7.67;100.00
63281;BME280;49406;51.044;3.766;2022-11-20T12:25:28;100739.95;;;7.65;100.00
63281;BME280;49406;51.044;3.766;2022-11-20T12:28:29;100733.16;;;7.65;100.00
63281;BME280;49406;51.044;3.766;2022-11-20T12:31:30;100728.90;;;7.60;100.00
63281;BME280;49406;51.044;3.766;2022-11-20T12:34:27;100720.63;;;7.55;100.00
63281;BME280;49406;51.044;3.766;2022-11-20T12:37:13;100712.73;;;7.52;100.00
63281;BME280;49406;51.044;3.766;2022-11-20T12:39:56;100712.64;;;7.56;100.00
63281;BME280;49406;51.044;3.766;2022-11-20T12:42:45;100701.73;;;7.59;100.00
63281;BME280;49406;51.044;3.766;2022-11-20T12:46:05;100698.45;;;7.60;100.00
63281;BME280;49406;51.044;3.766;2022-11-20T12:51:55;100680.20;;;7.61;100.00
63281;BME280;49406;51.044;3.766;2022-11-20T12:54:36;100676.73;;;7.61;100.00
63281;BME280;49406;51.044;3.766;2022-11-20T12:57:21;100676.73;;;7.62;100.00
63281;BME280;49406;51.044;3.766;2022-11-20T13:00:19;100674.13;;;7.62;100.00
63281;BME280;49406;51.044;3.766;2022-11-20T13:03:21;100673.45;;;7.63;100.00
63281;BME280;49406;51.044;3.766;2022-11-20T13:06:08;100666.66;;;7.63;100.00
63281;BME280;49406;51.044;3.766;2022-11-20T13:08:43;100657.11;;;7.64;100.00
63281;BME280;49406;51.044;3.766;2022-11-20T13:11:24;100647.76;;;7.67;100.00
63281;BME280;49406;51.044;3.766;2022-11-20T13:14:16;100648.80;;;7.67;100.00
63281;BME280;49406;51.044;3.766;2022-11-20T13:16:57;100642.38;;;7.68;100.00
63281;BME280;49406;51.044;3.766;2022-11-20T13:19:31;100640.99;;;7.68;100.00
63281;BME280;49406;51.044;3.766;2022-11-20T13:22:08;100635.12;;;7.71;100.00
63281;BME280;49406;51.044;3.766;2022-11-20T13:24:51;100630.95;;;7.72;100.00
63281;BME280;49406;51.044;3.766;2022-11-20T13:27:26;100634.44;;;7.72;100.00
63281;BME280;49406;51.044;3.766;2022-11-20T13:30:15;100627.84;;;7.72;100.00
63281;BME280;49406;51.044;3.766;2022-11-20T13:32:55;100627.39;;;7.76;100.00
63281;BME280;49406;51.044;3.766;2022-11-20T13:35:34;100623.39;;;7.76;100.00
63281;BME280;49406;51.044;3.766;2022-11-20T13:38:11;100615.39;;;7.76;100.00
63281;BME280;49406;51.044;3.766;2022-11-20T13:40:54;100612.27;;;7.77;100.00
63281;BME280;49406;51.044;3.766;2022-11-20T13:43:36;100613.30;;;7.76;100.00
63281;BME280;49406;51.044;3.766;2022-11-20T13:46:11;100609.45;;;7.76;100.00
63281;BME280;49406;51.044;3.766;2022-11-20T13:48:47;100607.91;;;7.76;100.00
63281;BME280;49406;51.044;3.766;2022-11-20T13:51:31;100602.86;;;7.77;100.00